Time;durP1;ratioP1;P1;durP2;ratioP2;P2;SDS_P1;SDS_P2;PMS_P1;PMS_P2;Temp;Humidity;BMP_temperature;BMP_pressure;BME280_temperature;BME280_humidity;BME280_pressure;Samples;Min_cycle;Max_cycle;Signal;HPM_P1;HPM_P2
2022/03/08 00:02:09;;;;;;;31.50;15.32;;;-4.20;97.20;;;;;;5055932;28;20017;-70
2022/03/08 00:04:35;;;;;;;29.10;14.13;;;-4.20;97.00;;;;;;5056418;28;20032;-70
2022/03/08 00:07:01;;;;;;;33.55;16.08;;;-4.20;96.60;;;;;;5056306;28;20021;-69
2022/03/08 00:09:28;;;;;;;34.10;16.17;;;-4.30;96.50;;;;;;5055970;28;20131;-69
2022/03/08 00:11:54;;;;;;;31.40;14.23;;;-4.30;96.60;;;;;;5054713;28;20444;-70
2022/03/08 00:14:19;;;;;;;28.63;14.20;;;-4.30;96.70;;;;;;5056010;28;20108;-69
2022/03/08 00:16:45;;;;;;;34.20;15.15;;;-4.40;96.80;;;;;;5054505;28;20021;-69
2022/03/08 00:19:11;;;;;;;29.42;13.85;;;-4.40;96.60;;;;;;5055456;28;20025;-69
2022/03/08 00:21:37;;;;;;;30.98;14.60;;;-4.40;96.30;;;;;;5055691;28;20035;-69
2022/03/08 00:24:03;;;;;;;33.47;15.20;;;-4.40;96.40;;;;;;5055734;28;20029;-69
2022/03/08 00:26:29;;;;;;;35.28;16.73;;;-4.50;96.60;;;;;;5054114;28;20071;-69
2022/03/08 00:28:55;;;;;;;33.10;15.55;;;-4.50;97.10;;;;;;5055582;28;20052;-69
2022/03/08 00:31:21;;;;;;;29.63;13.93;;;-4.50;97.30;;;;;;5055287;28;20021;-69
2022/03/08 00:33:46;;;;;;;35.15;16.15;;;-4.50;97.40;;;;;;5053939;28;20481;-70
2022/03/08 00:36:13;;;;;;;32.08;14.10;;;-4.60;97.60;;;;;;5055474;28;20060;-69
2022/03/08 00:38:39;;;;;;;33.00;15.40;;;-4.60;97.80;;;;;;5055099;28;20040;-69
2022/03/08 00:41:05;;;;;;;30.23;15.23;;;-4.50;98.00;;;;;;5055060;28;20028;-69
2022/03/08 00:43:30;;;;;;;32.45;16.58;;;-4.60;97.90;;;;;;5055114;28;20013;-69
2022/03/08 00:45:56;;;;;;;36.90;17.38;;;-4.70;98.20;;;;;;5055043;28;20029;-69
2022/03/08 00:48:22;;;;;;;34.15;16.48;;;-4.70;98.50;;;;;;5054978;28;20473;-69
2022/03/08 00:50:48;;;;;;;36.25;17.85;;;-4.70;98.60;;;;;;5054854;28;20032;-69
2022/03/08 00:53:14;;;;;;;44.28;17.27;;;-4.80;98.60;;;;;;5054929;28;20040;-69
2022/03/08 00:55:40;;;;;;;39.97;16.75;;;-4.70;98.60;;;;;;5054823;28;20389;-69
2022/03/08 00:58:06;;;;;;;32.95;15.60;;;-4.80;98.10;;;;;;5054745;28;20071;-69
2022/03/08 01:00:35;;;;;;;32.92;14.38;;;-4.80;98.00;;;;;;5054586;28;20366;-69
2022/03/08 01:03:00;;;;;;;32.53;13.93;;;-4.90;97.80;;;;;;5054650;28;20025;-68
2022/03/08 01:05:28;;;;;;;32.28;14.77;;;-4.90;97.80;;;;;;5054661;28;20021;-69
2022/03/08 01:07:54;;;;;;;34.92;15.20;;;-5.00;97.90;;;;;;5054624;28;20017;-69
2022/03/08 01:10:22;;;;;;;32.90;14.90;;;-5.00;98.20;;;;;;5054478;28;20029;-69
2022/03/08 01:12:49;;;;;;;35.15;16.98;;;-5.00;98.50;;;;;;5054633;28;20028;-68
2022/03/08 01:15:16;;;;;;;32.35;14.80;;;-5.10;98.70;;;;;;5053211;28;20120;-68
2022/03/08 01:17:42;;;;;;;33.85;15.32;;;-5.10;98.50;;;;;;5054600;28;20028;-68
2022/03/08 01:20:09;;;;;;;32.60;14.93;;;-5.10;98.20;;;;;;5055023;28;20029;-68
2022/03/08 01:22:35;;;;;;;30.35;15.32;;;-5.10;98.10;;;;;;5036616;28;20036;-68
2022/03/08 01:25:03;;;;;;;34.10;14.30;;;-5.20;98.00;;;;;;5054600;28;20021;-68
2022/03/08 01:27:28;;;;;;;36.28;15.07;;;-5.20;98.00;;;;;;5054012;28;20029;-68
2022/03/08 01:29:54;;;;;;;30.98;15.18;;;-5.20;98.10;;;;;;5054155;28;20028;-68
2022/03/08 01:32:20;;;;;;;33.92;15.32;;;-5.20;98.10;;;;;;5054035;28;20031;-68
2022/03/08 01:34:46;;;;;;;30.75;14.85;;;-5.20;98.20;;;;;;5054135;28;20474;-68
2022/03/08 01:37:12;;;;;;;31.65;14.52;;;-5.20;98.20;;;;;;5053791;28;20025;-68
2022/03/08 01:39:38;;;;;;;30.00;14.30;;;-5.20;98.30;;;;;;5053900;28;20544;-68
2022/03/08 01:42:12;;;;;;;31.30;14.43;;;-5.20;98.40;;;;;;5054521;28;20411;-68
2022/03/08 01:44:42;;;;;;;30.17;13.77;;;-5.20;98.50;;;;;;5052652;28;20468;-68
2022/03/08 01:47:11;;;;;;;30.58;14.77;;;-5.30;98.50;;;;;;5054183;28;20051;-68
2022/03/08 01:49:37;;;;;;;37.20;17.48;;;-5.30;98.60;;;;;;5053791;28;20439;-68
2022/03/08 01:52:03;;;;;;;38.17;16.40;;;-5.40;99.00;;;;;;5053767;28;20017;-68
2022/03/08 01:54:29;;;;;;;34.22;16.02;;;-5.50;99.00;;;;;;5054016;28;20028;-68
2022/03/08 01:56:55;;;;;;;32.75;15.15;;;-5.60;99.60;;;;;;5053689;28;20036;-68
2022/03/08 01:59:21;;;;;;;34.58;16.05;;;-5.60;99.70;;;;;;5053625;28;20021;-68
2022/03/08 02:01:47;;;;;;;29.38;15.57;;;-5.70;99.60;;;;;;5054116;28;20052;-68
2022/03/08 02:04:13;;;;;;;32.28;15.52;;;-5.70;99.80;;;;;;5053865;28;20036;-68
2022/03/08 02:06:38;;;;;;;31.98;15.18;;;-5.70;99.90;;;;;;5053596;28;20025;-68
2022/03/08 02:09:04;;;;;;;34.70;15.30;;;-5.70;99.70;;;;;;5053512;28;20483;-68
2022/03/08 02:11:31;;;;;;;33.95;15.15;;;-5.70;99.70;;;;;;5053466;28;20047;-68
2022/03/08 02:13:57;;;;;;;35.45;15.98;;;-5.70;99.70;;;;;;5053757;28;20032;-68
2022/03/08 02:16:23;;;;;;;31.23;13.85;;;-5.70;99.60;;;;;;5053405;28;20489;-68
2022/03/08 02:18:49;;;;;;;31.27;15.20;;;-5.70;99.50;;;;;;5053332;28;20048;-68
2022/03/08 02:21:14;;;;;;;32.65;15.07;;;-5.70;99.40;;;;;;5053253;28;20021;-68
2022/03/08 02:23:40;;;;;;;34.92;15.80;;;-5.70;99.30;;;;;;5053628;28;20063;-68
2022/03/08 02:26:06;;;;;;;34.80;15.70;;;-5.70;99.10;;;;;;5052179;28;20104;-68
2022/03/08 02:28:32;;;;;;;29.98;13.98;;;-5.70;99.20;;;;;;5053270;28;20077;-68
2022/03/08 02:30:57;;;;;;;37.75;15.40;;;-5.70;99.20;;;;;;5053233;28;20032;-68
2022/03/08 02:33:23;;;;;;;32.25;14.68;;;-5.80;98.90;;;;;;5053266;28;20036;-68
2022/03/08 02:35:49;;;;;;;30.88;14.55;;;-5.80;99.40;;;;;;5053194;28;20485;-68
2022/03/08 02:38:15;;;;;;;36.95;16.25;;;-5.90;99.70;;;;;;5053489;28;20048;-67
2022/03/08 02:40:42;;;;;;;34.47;16.27;;;-5.90;99.50;;;;;;5054682;28;20032;-67
2022/03/08 02:43:10;;;;;;;29.17;14.50;;;-6.00;99.70;;;;;;5057739;28;20025;-67
2022/03/08 02:45:37;;;;;;;30.92;14.68;;;-6.00;99.90;;;;;;5056020;28;20095;-67
2022/03/08 02:48:03;;;;;;;33.13;15.13;;;-6.00;99.80;;;;;;5057297;28;20029;-67
2022/03/08 02:50:29;;;;;;;30.88;13.52;;;-6.10;99.80;;;;;;5057133;28;20370;-67
2022/03/08 02:52:56;;;;;;;34.72;13.60;;;-6.10;99.90;;;;;;5057167;28;20044;-67
2022/03/08 02:55:25;;;;;;;31.27;14.63;;;-6.10;99.80;;;;;;5055857;28;20150;-67
2022/03/08 02:57:52;;;;;;;39.30;15.88;;;-6.10;99.70;;;;;;5057013;28;20041;-68
2022/03/08 03:00:19;;;;;;;35.30;15.70;;;-6.10;99.50;;;;;;5056939;28;20025;-68
2022/03/08 03:02:46;;;;;;;34.08;14.60;;;-6.10;99.50;;;;;;5056958;28;20017;-68
2022/03/08 03:05:13;;;;;;;31.42;14.98;;;-6.10;99.70;;;;;;5057215;28;20416;-68
2022/03/08 03:07:40;;;;;;;32.30;14.90;;;-6.10;99.80;;;;;;5057686;28;20373;-68
2022/03/08 03:10:14;;;;;;;32.85;15.00;;;-6.10;99.70;;;;;;5055521;28;20032;-68
2022/03/08 03:12:39;;;;;;;35.97;15.85;;;-6.10;99.60;;;;;;5057069;28;20029;-68
2022/03/08 03:15:08;;;;;;;38.95;15.45;;;-6.10;99.70;;;;;;5056811;28;20075;-68
2022/03/08 03:17:34;;;;;;;33.35;14.75;;;-6.20;99.70;;;;;;5057500;28;20029;-66
2022/03/08 03:19:59;;;;;;;32.13;14.80;;;-6.10;99.70;;;;;;5056784;28;20377;-66
2022/03/08 03:22:25;;;;;;;29.98;13.93;;;-6.20;99.50;;;;;;5056619;28;20108;-66
2022/03/08 03:24:51;;;;;;;34.38;14.75;;;-6.20;99.40;;;;;;5056585;28;20018;-66
2022/03/08 03:27:17;;;;;;;33.65;15.18;;;-6.20;99.40;;;;;;5056489;28;20021;-66
2022/03/08 03:29:42;;;;;;;34.35;14.98;;;-6.20;99.50;;;;;;5056703;28;20029;-66
2022/03/08 03:32:08;;;;;;;36.38;15.73;;;-6.30;99.70;;;;;;5056461;28;20021;-66
2022/03/08 03:34:34;;;;;;;29.42;13.60;;;-6.30;99.50;;;;;;5056395;28;20053;-66
2022/03/08 03:36:59;;;;;;;30.42;14.50;;;-6.40;99.30;;;;;;5056958;28;20472;-66
2022/03/08 03:39:25;;;;;;;30.35;14.90;;;-6.50;99.20;;;;;;5056532;28;20017;-66
2022/03/08 03:41:51;;;;;;;34.30;15.60;;;-6.50;99.20;;;;;;5056480;28;20124;-66
2022/03/08 03:44:17;;;;;;;34.97;14.25;;;-6.50;99.30;;;;;;5056241;28;20104;-66
2022/03/08 03:46:42;;;;;;;37.90;15.02;;;-6.60;99.50;;;;;;5056451;28;20029;-66
2022/03/08 03:49:08;;;;;;;30.98;15.05;;;-6.60;99.70;;;;;;5056457;28;20025;-66
2022/03/08 03:51:34;;;;;;;32.42;13.93;;;-6.70;99.90;;;;;;5056353;28;20029;-66
2022/03/08 03:54:00;;;;;;;32.78;15.30;;;-6.70;99.90;;;;;;5054819;28;20448;-66
2022/03/08 03:56:26;;;;;;;36.10;15.23;;;-6.70;99.90;;;;;;5055868;28;20388;-66
2022/03/08 03:58:51;;;;;;;31.27;14.10;;;-6.70;99.90;;;;;;5056197;28;20536;-66
2022/03/08 04:01:17;;;;;;;37.63;15.60;;;-6.80;99.70;;;;;;5056126;28;20108;-66
2022/03/08 04:03:43;;;;;;;32.70;14.32;;;-6.90;99.60;;;;;;5054598;28;20021;-66
2022/03/08 04:06:09;;;;;;;33.38;14.98;;;-6.90;99.70;;;;;;5055827;28;20025;-66
2022/03/08 04:08:35;;;;;;;33.15;15.35;;;-7.00;99.80;;;;;;5056102;28;20017;-66
2022/03/08 04:11:00;;;;;;;34.85;14.52;;;-7.00;99.90;;;;;;5055764;28;20033;-66
2022/03/08 04:13:26;;;;;;;38.40;15.82;;;-7.00;99.90;;;;;;5055650;28;20027;-66
2022/03/08 04:15:52;;;;;;;35.60;15.52;;;-7.00;99.90;;;;;;5055828;28;20037;-66
2022/03/08 04:18:18;;;;;;;35.40;16.45;;;-7.00;99.90;;;;;;5056137;28;20033;-66
2022/03/08 04:20:44;;;;;;;36.97;15.65;;;-7.00;99.90;;;;;;5055419;28;20029;-66
2022/03/08 04:23:11;;;;;;;38.17;17.23;;;-7.00;99.90;;;;;;5055478;28;20025;-66
2022/03/08 04:25:36;;;;;;;34.85;15.95;;;-7.00;99.90;;;;;;5055436;28;20024;-66
2022/03/08 04:28:06;;;;;;;38.65;15.57;;;-7.00;99.90;;;;;;5055476;28;20020;-66
2022/03/08 04:30:32;;;;;;;32.92;14.55;;;-7.10;99.90;;;;;;5055477;28;20116;-65
2022/03/08 04:32:58;;;;;;;39.95;16.67;;;-7.10;99.90;;;;;;5055613;28;20052;-66
2022/03/08 04:35:24;;;;;;;40.65;15.77;;;-7.10;99.90;;;;;;5055859;28;20025;-66
2022/03/08 04:37:50;;;;;;;44.67;17.48;;;-7.10;99.90;;;;;;5055200;28;20025;-65
2022/03/08 04:40:16;;;;;;;38.08;16.58;;;-7.10;99.90;;;;;;5055070;28;20112;-66
2022/03/08 04:42:43;;;;;;;43.53;17.50;;;-7.10;99.90;;;;;;5055429;28;20536;-66
2022/03/08 04:45:11;;;;;;;40.22;18.02;;;-7.00;99.90;;;;;;5055076;28;20079;-66
2022/03/08 04:47:37;;;;;;;39.08;15.48;;;-7.00;99.90;;;;;;5055137;28;20040;-66
2022/03/08 04:50:11;;;;;;;40.05;17.08;;;-7.00;99.90;;;;;;5055008;28;20074;-66
2022/03/08 04:52:37;;;;;;;40.35;16.95;;;-7.10;99.90;;;;;;5054942;28;20025;-66
2022/03/08 04:55:04;;;;;;;39.88;17.90;;;-7.10;99.90;;;;;;5054848;28;20492;-66
2022/03/08 04:57:29;;;;;;;37.90;17.20;;;-7.20;99.90;;;;;;5054846;28;20397;-66
2022/03/08 04:59:55;;;;;;;46.58;21.05;;;-7.20;99.90;;;;;;5053281;28;20033;-66
2022/03/08 05:02:21;;;;;;;44.72;19.48;;;-7.20;99.90;;;;;;5054185;28;20032;-66
2022/03/08 05:04:47;;;;;;;37.10;17.50;;;-7.20;99.90;;;;;;5054998;28;20096;-66
2022/03/08 05:07:12;;;;;;;46.60;18.48;;;-7.20;99.90;;;;;;5054959;28;20028;-65
2022/03/08 05:09:38;;;;;;;37.42;16.63;;;-7.20;99.90;;;;;;5054696;28;20025;-65
2022/03/08 05:12:05;;;;;;;40.45;17.20;;;-7.10;99.90;;;;;;5054897;28;20040;-66
2022/03/08 05:14:31;;;;;;;41.40;17.27;;;-7.10;99.90;;;;;;5055103;28;20021;-67
2022/03/08 05:16:57;;;;;;;43.17;17.58;;;-7.10;99.90;;;;;;5053209;28;20048;-67
2022/03/08 05:19:23;;;;;;;41.80;17.02;;;-7.20;99.90;;;;;;5054365;28;20029;-68
2022/03/08 05:21:49;;;;;;;45.38;18.35;;;-7.20;99.90;;;;;;5054326;28;20021;-67
2022/03/08 05:24:14;;;;;;;58.90;22.63;;;-7.20;99.90;;;;;;5054636;28;20051;-67
2022/03/08 05:26:40;;;;;;;61.28;22.90;;;-7.30;99.90;;;;;;5054695;28;20048;-68
2022/03/08 05:29:07;;;;;;;64.28;23.40;;;-7.20;99.90;;;;;;5053227;28;20496;-68
2022/03/08 05:31:33;;;;;;;58.00;22.70;;;-7.20;99.90;;;;;;5054344;28;20391;-68
2022/03/08 05:33:59;;;;;;;63.90;23.73;;;-7.20;99.90;;;;;;5054188;28;20032;-68
2022/03/08 05:36:25;;;;;;;49.30;20.40;;;-7.20;99.90;;;;;;5052843;28;20385;-68
2022/03/08 05:38:51;;;;;;;41.90;18.00;;;-7.20;99.90;;;;;;5053864;28;20033;-68
2022/03/08 05:41:17;;;;;;;39.22;17.20;;;-7.20;99.90;;;;;;5053997;28;20043;-68
2022/03/08 05:43:42;;;;;;;40.22;16.48;;;-7.20;99.90;;;;;;5054577;28;20058;-68
2022/03/08 05:46:08;;;;;;;38.92;16.42;;;-7.30;99.90;;;;;;5054324;28;20465;-68
2022/03/08 05:48:34;;;;;;;42.22;16.67;;;-7.30;99.90;;;;;;5053884;28;20024;-69
2022/03/08 05:50:59;;;;;;;39.40;17.50;;;-7.30;99.90;;;;;;5054428;28;20025;-69
2022/03/08 05:53:25;;;;;;;46.33;19.75;;;-7.30;99.90;;;;;;5053874;28;20025;-66
2022/03/08 05:55:51;;;;;;;41.63;17.98;;;-7.30;99.90;;;;;;5054035;28;20052;-66
2022/03/08 05:58:16;;;;;;;40.42;16.60;;;-7.30;99.90;;;;;;5052378;28;20087;-66
2022/03/08 06:00:42;;;;;;;38.83;15.98;;;-7.20;99.90;;;;;;5053626;28;20053;-66
2022/03/08 06:03:08;;;;;;;36.97;16.17;;;-7.30;99.90;;;;;;5053670;28;20036;-66
2022/03/08 06:05:35;;;;;;;40.75;16.25;;;-7.30;99.90;;;;;;5053929;28;20377;-66
2022/03/08 06:08:02;;;;;;;39.03;15.70;;;-7.30;99.80;;;;;;5054161;28;20481;-66
2022/03/08 06:10:27;;;;;;;38.88;16.08;;;-7.40;99.50;;;;;;5053452;28;20036;-66
2022/03/08 06:12:53;;;;;;;39.13;15.95;;;-7.40;99.50;;;;;;5053508;28;20029;-66
2022/03/08 06:15:19;;;;;;;43.42;15.93;;;-7.50;99.70;;;;;;5052665;28;20029;-66
2022/03/08 06:17:44;;;;;;;42.28;16.42;;;-7.50;99.90;;;;;;5053463;28;20127;-66
2022/03/08 06:20:11;;;;;;;33.35;15.02;;;-7.60;99.70;;;;;;5053871;28;20035;-66
2022/03/08 06:22:37;;;;;;;36.90;16.50;;;-7.60;99.90;;;;;;5053795;28;20118;-66
2022/03/08 06:25:03;;;;;;;37.72;14.93;;;-7.50;99.90;;;;;;5053738;28;20067;-66
2022/03/08 06:27:29;;;;;;;35.90;15.50;;;-7.50;99.90;;;;;;5053985;28;20039;-66
2022/03/08 06:29:56;;;;;;;41.72;16.92;;;-7.40;99.90;;;;;;5054080;28;20100;-66
2022/03/08 06:32:21;;;;;;;34.47;15.30;;;-7.30;99.90;;;;;;5053842;28;20418;-66
2022/03/08 06:34:50;;;;;;;37.00;15.70;;;-7.20;99.90;;;;;;5053289;28;20052;-66
2022/03/08 06:37:17;;;;;;;38.92;16.08;;;-7.10;99.90;;;;;;5052081;28;20027;-66
2022/03/08 06:39:43;;;;;;;41.60;17.20;;;-7.10;99.90;;;;;;5053284;28;20017;-66
2022/03/08 06:42:08;;;;;;;47.67;19.95;;;-7.00;99.90;;;;;;5053507;28;20013;-66
2022/03/08 06:44:35;;;;;;;42.05;18.80;;;-7.00;99.90;;;;;;5051883;28;20021;-66
2022/03/08 06:47:01;;;;;;;49.83;20.15;;;-7.00;99.90;;;;;;5053076;28;20023;-66
2022/03/08 06:49:26;;;;;;;52.72;19.63;;;-7.00;99.90;;;;;;5053028;28;20029;-66
2022/03/08 06:51:52;;;;;;;43.53;18.13;;;-7.00;99.90;;;;;;5053373;28;20033;-66
2022/03/08 06:54:18;;;;;;;42.03;17.67;;;-7.00;99.90;;;;;;5053616;28;20075;-66
2022/03/08 06:56:43;;;;;;;42.20;17.13;;;-7.00;99.90;;;;;;5052926;28;20065;-66
2022/03/08 06:59:09;;;;;;;39.65;18.17;;;-6.90;99.90;;;;;;5053141;28;20025;-66
2022/03/08 07:01:35;;;;;;;48.78;19.70;;;-6.80;99.90;;;;;;5052966;28;20104;-66
2022/03/08 07:04:01;;;;;;;46.65;18.27;;;-6.70;99.90;;;;;;5053228;28;20017;-66
2022/03/08 07:06:26;;;;;;;54.40;20.70;;;-6.70;99.90;;;;;;5052810;28;20021;-66
2022/03/08 07:08:53;;;;;;;43.55;18.35;;;-6.60;99.90;;;;;;5052833;28;20092;-66
2022/03/08 07:11:19;;;;;;;46.72;19.75;;;-6.50;99.90;;;;;;5052912;28;20104;-66
2022/03/08 07:13:45;;;;;;;48.35;20.63;;;-6.40;99.90;;;;;;5053165;28;20449;-66
2022/03/08 07:16:11;;;;;;;49.50;21.17;;;-6.30;99.90;;;;;;5053094;28;20021;-66
2022/03/08 07:18:36;;;;;;;43.80;18.80;;;-6.30;99.90;;;;;;5053004;28;20108;-66
2022/03/08 07:21:03;;;;;;;52.78;21.40;;;-6.30;99.90;;;;;;5052985;28;20074;-66
2022/03/08 07:23:30;;;;;;;51.78;22.17;;;-6.20;99.90;;;;;;5052737;28;20021;-66
2022/03/08 07:25:56;;;;;;;47.67;18.10;;;-6.20;99.90;;;;;;5054274;28;20021;-66
2022/03/08 07:28:22;;;;;;;45.45;18.27;;;-6.10;99.90;;;;;;5055235;28;20021;-66
2022/03/08 07:30:47;;;;;;;47.42;17.98;;;-6.20;99.90;;;;;;5056363;28;20036;-66
2022/03/08 07:33:13;;;;;;;39.10;17.08;;;-6.10;99.90;;;;;;5055439;28;20029;-66
2022/03/08 07:35:39;;;;;;;46.10;18.20;;;-6.10;99.90;;;;;;5056447;28;20100;-66
2022/03/08 07:38:05;;;;;;;46.15;19.63;;;-6.00;99.90;;;;;;5055114;28;20481;-66
2022/03/08 07:40:31;;;;;;;46.45;19.75;;;-5.90;99.90;;;;;;5056176;28;20393;-66
2022/03/08 07:42:56;;;;;;;44.47;20.00;;;-5.90;99.90;;;;;;5056252;28;20473;-66
2022/03/08 07:45:22;;;;;;;44.78;17.25;;;-5.80;99.90;;;;;;5056507;28;20052;-66
2022/03/08 07:47:48;;;;;;;42.20;18.13;;;-5.70;99.90;;;;;;5056151;28;20496;-66
2022/03/08 07:50:14;;;;;;;46.72;19.52;;;-5.60;99.90;;;;;;5054740;28;20032;-66
2022/03/08 07:52:39;;;;;;;50.33;19.70;;;-5.50;99.90;;;;;;5056348;28;20029;-66
2022/03/08 07:55:07;;;;;;;53.15;20.05;;;-5.50;99.90;;;;;;5056305;28;20035;-66
2022/03/08 07:57:33;;;;;;;51.70;20.13;;;-5.40;99.90;;;;;;5055765;28;20029;-66
2022/03/08 07:59:59;;;;;;;47.22;19.35;;;-5.30;99.90;;;;;;5055715;28;20095;-66
2022/03/08 08:02:25;;;;;;;49.38;20.75;;;-5.30;99.90;;;;;;5055858;28;20085;-66
2022/03/08 08:04:52;;;;;;;53.47;22.08;;;-5.20;99.90;;;;;;5055753;28;20044;-66
2022/03/08 08:07:17;;;;;;;48.38;20.77;;;-5.10;99.90;;;;;;5055672;28;20017;-66
2022/03/08 08:09:43;;;;;;;54.38;21.27;;;-5.10;99.90;;;;;;5055650;28;20025;-66
2022/03/08 08:12:09;;;;;;;48.20;21.40;;;-5.00;99.90;;;;;;5054420;28;20027;-66
2022/03/08 08:14:35;;;;;;;47.65;21.02;;;-4.90;99.90;;;;;;5055681;28;20064;-66
2022/03/08 08:17:00;;;;;;;61.35;23.42;;;-4.80;99.90;;;;;;5055564;28;20021;-66
2022/03/08 08:19:26;;;;;;;64.35;24.40;;;-4.60;99.90;;;;;;5055736;28;20036;-66
2022/03/08 08:21:52;;;;;;;60.20;25.40;;;-4.50;99.90;;;;;;5054164;28;20035;-66
2022/03/08 08:24:17;;;;;;;55.63;23.95;;;-4.40;99.90;;;;;;5055469;28;20473;-66
2022/03/08 08:26:43;;;;;;;62.55;24.58;;;-4.30;99.90;;;;;;5055399;28;20025;-66
2022/03/08 08:29:09;;;;;;;61.63;24.25;;;-4.20;99.90;;;;;;5055728;28;20032;-66
2022/03/08 08:31:35;;;;;;;61.15;26.50;;;-4.20;99.90;;;;;;5054060;28;20032;-66
2022/03/08 08:34:01;;;;;;;51.67;22.95;;;-4.10;99.90;;;;;;5055251;28;20033;-66
2022/03/08 08:36:26;;;;;;;54.17;23.42;;;-4.00;99.80;;;;;;5055197;28;20056;-66
2022/03/08 08:38:52;;;;;;;55.72;23.45;;;-4.00;99.50;;;;;;5054212;28;20027;-66
2022/03/08 08:41:18;;;;;;;55.92;24.30;;;-3.90;99.30;;;;;;5055068;28;20028;-66
2022/03/08 08:43:44;;;;;;;55.47;22.85;;;-3.80;99.30;;;;;;5055099;28;20497;-66
2022/03/08 08:46:09;;;;;;;58.28;23.48;;;-3.60;99.20;;;;;;5055046;28;20104;-66
2022/03/08 08:48:35;;;;;;;52.38;23.35;;;-3.50;99.20;;;;;;5055437;28;20024;-66
2022/03/08 08:51:01;;;;;;;52.45;22.25;;;-3.40;98.00;;;;;;5055234;28;20381;-66
2022/03/08 08:53:27;;;;;;;53.05;23.73;;;-3.30;97.50;;;;;;5055208;28;20453;-66
2022/03/08 08:55:53;;;;;;;47.25;21.60;;;-3.20;97.40;;;;;;5053611;28;20028;-66
2022/03/08 08:58:19;;;;;;;57.65;22.15;;;-3.10;96.20;;;;;;5053451;28;20033;-66
2022/03/08 09:00:45;;;;;;;39.08;18.88;;;-3.00;96.10;;;;;;5054548;28;20492;-66
2022/03/08 09:03:14;;;;;;;37.85;17.85;;;-2.90;95.30;;;;;;5053428;28;20024;-66
2022/03/08 09:05:43;;;;;;;39.83;18.60;;;-2.80;94.50;;;;;;5054974;28;20539;-66
2022/03/08 09:08:09;;;;;;;45.45;21.52;;;-2.70;94.10;;;;;;5054586;28;20025;-66
2022/03/08 09:10:35;;;;;;;53.33;21.50;;;-2.50;94.70;;;;;;5054573;28;20104;-66
2022/03/08 09:13:01;;;;;;;40.72;18.15;;;-2.40;93.80;;;;;;5054607;28;20055;-66
2022/03/08 09:15:27;;;;;;;38.53;18.02;;;-2.40;93.10;;;;;;5054507;28;20468;-66
2022/03/08 09:17:53;;;;;;;38.50;18.77;;;-2.30;92.00;;;;;;5054857;28;20035;-64
2022/03/08 09:20:19;;;;;;;42.80;19.00;;;-2.20;91.70;;;;;;5054288;28;20096;-64
2022/03/08 09:22:45;;;;;;;44.15;18.98;;;-2.10;92.40;;;;;;5054365;28;20100;-64
2022/03/08 09:25:10;;;;;;;43.30;19.80;;;-2.00;91.90;;;;;;5054238;28;20060;-64
2022/03/08 09:27:36;;;;;;;48.70;20.27;;;-1.90;91.60;;;;;;5054536;28;20036;-64
2022/03/08 09:30:04;;;;;;;41.72;19.13;;;-1.80;91.60;;;;;;5054317;28;20065;-64
2022/03/08 09:32:30;;;;;;;37.92;17.27;;;-1.70;91.50;;;;;;5054304;28;20078;-64
2022/03/08 09:34:55;;;;;;;37.90;18.15;;;-1.60;90.90;;;;;;5054373;28;20055;-64
2022/03/08 09:37:21;;;;;;;37.78;17.55;;;-1.50;90.60;;;;;;5054601;28;20017;-64
2022/03/08 09:39:47;;;;;;;33.17;15.73;;;-1.30;90.20;;;;;;5054209;28;20419;-63
2022/03/08 09:42:13;;;;;;;37.95;17.52;;;-1.10;87.50;;;;;;5054508;28;20025;-64
2022/03/08 09:44:38;;;;;;;33.97;17.33;;;-1.00;86.10;;;;;;5053935;28;20024;-64
2022/03/08 09:47:05;;;;;;;32.35;16.23;;;-0.90;86.80;;;;;;5054161;28;20021;-64
2022/03/08 09:49:32;;;;;;;29.25;14.48;;;-0.80;85.00;;;;;;5053901;28;20497;-64
2022/03/08 09:51:58;;;;;;;28.45;13.25;;;-0.60;82.80;;;;;;5052479;28;20083;-64
2022/03/08 09:54:24;;;;;;;30.25;14.85;;;-0.50;77.00;;;;;;5053983;28;20037;-64
2022/03/08 09:56:50;;;;;;;31.25;14.48;;;-0.30;78.20;;;;;;5053822;28;20033;-64
2022/03/08 09:59:17;;;;;;;31.33;15.10;;;-0.30;76.60;;;;;;5053643;28;20440;-64
2022/03/08 10:01:44;;;;;;;38.85;16.95;;;-0.20;79.60;;;;;;5053652;28;20059;-64
2022/03/08 10:04:10;;;;;;;32.33;16.10;;;-0.10;80.50;;;;;;5054174;28;20021;-64
2022/03/08 10:06:43;;;;;;;35.67;16.80;;;-0.10;81.60;;;;;;5053776;28;20036;-65
2022/03/08 10:09:10;;;;;;;30.65;15.98;;;0.00;82.90;;;;;;5053389;28;20096;-65
2022/03/08 10:11:40;;;;;;;32.60;17.38;;;0.10;83.10;;;;;;5053774;28;20033;-65
2022/03/08 10:14:06;;;;;;;36.80;17.30;;;0.20;82.40;;;;;;5053700;28;20029;-65
2022/03/08 10:16:48;;;;;;;32.85;16.55;;;0.30;80.80;;;;;;5053447;28;20102;-65
2022/03/08 10:19:14;;;;;;;31.00;15.43;;;0.40;81.60;;;;;;5053586;28;20469;-65
2022/03/08 10:21:40;;;;;;;31.67;15.15;;;0.50;81.70;;;;;;5053298;28;20025;-65
2022/03/08 10:24:16;;;;;;;35.55;16.48;;;0.60;81.00;;;;;;5053374;28;20025;-65
2022/03/08 10:26:46;;;;;;;32.25;16.23;;;0.60;80.40;;;;;;5053362;28;20017;-65
2022/03/08 10:29:13;;;;;;;37.85;17.08;;;0.70;79.00;;;;;;5053255;28;20017;-65
2022/03/08 10:31:39;;;;;;;32.80;15.27;;;0.70;78.70;;;;;;5053547;28;20036;-65
2022/03/08 10:34:07;;;;;;;31.92;15.70;;;0.80;78.20;;;;;;5053509;28;20028;-65
2022/03/08 10:36:35;;;;;;;32.70;16.17;;;0.90;78.30;;;;;;5053225;28;20136;-65
2022/03/08 10:39:13;;;;;;;30.52;16.08;;;1.00;78.50;;;;;;5053135;28;20017;-65
2022/03/08 10:41:53;;;;;;;30.42;14.38;;;1.10;78.20;;;;;;5053544;28;20385;-65
2022/03/08 10:44:40;;;;;;;32.55;15.13;;;1.30;76.90;;;;;;5053456;28;20115;-65
2022/03/08 10:47:11;;;;;;;26.88;14.52;;;1.40;73.80;;;;;;5053367;28;20019;-66
2022/03/08 10:49:49;;;;;;;28.88;14.70;;;1.40;73.50;;;;;;5053638;28;20530;-66
2022/03/08 10:52:15;;;;;;;30.27;13.77;;;1.50;72.40;;;;;;5053160;28;20502;-66
2022/03/08 10:54:41;;;;;;;24.15;12.60;;;1.70;72.40;;;;;;5053064;28;20060;-66
2022/03/08 10:57:09;;;;;;;21.95;11.88;;;1.70;70.50;;;;;;5053216;28;20047;-66
2022/03/08 10:59:35;;;;;;;22.00;10.65;;;1.80;69.20;;;;;;5053196;28;20029;-67
2022/03/08 11:02:20;;;;;;;21.00;10.57;;;1.90;67.80;;;;;;5056016;28;20033;-67
2022/03/08 11:04:45;;;;;;;17.80;9.60;;;1.90;65.00;;;;;;5055831;28;20028;-66
2022/03/08 11:07:12;;;;;;;19.17;9.35;;;2.00;65.20;;;;;;5056961;28;20021;-67
2022/03/08 11:09:38;;;;;;;15.77;7.97;;;2.00;64.10;;;;;;5056952;28;20032;-67
2022/03/08 11:12:04;;;;;;;15.60;8.27;;;2.10;63.90;;;;;;5056849;28;20116;-67
2022/03/08 11:14:30;;;;;;;14.27;8.35;;;2.20;65.70;;;;;;5056789;28;20451;-67
2022/03/08 11:16:58;;;;;;;14.63;8.23;;;2.30;63.70;;;;;;5056755;28;20025;-67
2022/03/08 11:19:28;;;;;;;16.02;8.32;;;2.30;59.80;;;;;;5056707;28;20032;-68
2022/03/08 11:21:56;;;;;;;15.27;8.43;;;2.30;61.40;;;;;;5056622;28;20416;-68
2022/03/08 11:24:22;;;;;;;15.77;8.32;;;2.40;61.40;;;;;;5056650;28;20099;-68
2022/03/08 11:26:48;;;;;;;13.55;8.02;;;2.50;60.60;;;;;;5056504;28;20056;-68
2022/03/08 11:29:15;;;;;;;16.70;8.38;;;2.50;61.20;;;;;;5056620;28;20021;-68
2022/03/08 11:31:43;;;;;;;16.77;9.27;;;2.70;61.70;;;;;;5056772;28;20029;-68
2022/03/08 11:34:23;;;;;;;19.40;9.25;;;2.80;62.10;;;;;;5056737;28;20092;-69
2022/03/08 11:37:01;;;;;;;18.30;9.80;;;2.80;61.70;;;;;;5056702;28;20465;-69
2022/03/08 11:39:31;;;;;;;20.05;10.00;;;2.90;61.80;;;;;;5056447;28;20033;-69
2022/03/08 11:42:16;;;;;;;18.50;8.60;;;3.00;60.40;;;;;;5056245;28;20392;-69
2022/03/08 11:45:03;;;;;;;15.85;8.25;;;3.00;59.50;;;;;;5056356;28;20031;-69
2022/03/08 11:47:40;;;;;;;18.40;8.80;;;3.10;60.60;;;;;;5056522;28;20484;-69
2022/03/08 11:50:16;;;;;;;17.75;8.50;;;3.10;57.60;;;;;;5056092;28;20060;-69
2022/03/08 11:52:42;;;;;;;16.58;7.82;;;3.20;59.20;;;;;;5054867;28;20071;-69
2022/03/08 11:55:13;;;;;;;14.90;7.40;;;3.30;59.50;;;;;;5056375;28;20048;-69
2022/03/08 11:57:48;;;;;;;19.80;8.45;;;3.40;60.60;;;;;;5056065;28;20029;-69
2022/03/08 12:00:20;;;;;;;17.77;7.68;;;3.50;59.70;;;;;;5055846;28;20035;-69
2022/03/08 12:02:51;;;;;;;13.18;6.57;;;3.70;57.80;;;;;;5055916;28;20017;-69
2022/03/08 12:05:55;;;;;;;11.70;6.40;;;3.80;57.10;;;;;;5055977;28;20381;-69
2022/03/08 12:08:30;;;;;;;14.02;7.10;;;3.90;54.90;;;;;;5053825;28;20041;-69
2022/03/08 12:11:00;;;;;;;11.70;6.25;;;4.00;55.10;;;;;;5056089;28;20029;-69
2022/03/08 12:13:39;;;;;;;10.18;6.25;;;4.10;55.50;;;;;;5053204;28;20385;-69
2022/03/08 12:16:08;;;;;;;10.50;5.78;;;4.10;55.10;;;;;;5055640;28;20021;-69
2022/03/08 12:18:45;;;;;;;14.68;6.15;;;4.20;54.40;;;;;;5055529;28;20028;-69
2022/03/08 12:21:20;;;;;;;10.32;6.15;;;4.30;53.10;;;;;;5055542;28;20472;-69
2022/03/08 12:23:55;;;;;;;12.10;6.13;;;4.40;52.40;;;;;;5055516;28;20021;-69
2022/03/08 12:26:52;;;;;;;9.25;5.72;;;4.50;54.50;;;;;;5055756;28;20108;-69
2022/03/08 12:29:21;;;;;;;11.70;6.35;;;4.60;55.40;;;;;;5054905;28;20063;-69
2022/03/08 12:31:59;;;;;;;11.38;6.30;;;4.70;51.30;;;;;;5055922;28;20029;-69